createdAt,value
2023-05-18T00:00:04.585Z,1.30
2023-05-18T00:02:34.355Z,1.95
2023-05-18T00:05:02.931Z,1.42
2023-05-18T00:07:34.819Z,1.25
2023-05-18T00:10:02.438Z,1.40
2023-05-18T00:12:30.280Z,2.03
2023-05-18T00:14:58.058Z,1.77
2023-05-18T00:17:25.625Z,2.17
2023-05-18T00:19:53.152Z,2.03
2023-05-18T00:22:20.864Z,2.97
2023-05-18T00:24:48.931Z,1.98
2023-05-18T00:27:16.582Z,2.10
2023-05-18T00:29:47.100Z,1.50
2023-05-18T00:32:14.641Z,1.60
2023-05-18T00:34:42.128Z,1.40
2023-05-18T00:37:09.762Z,2.05
2023-05-18T00:39:37.299Z,1.90
2023-05-18T00:42:04.901Z,1.85
2023-05-18T00:44:32.589Z,0.93
2023-05-18T00:47:00.840Z,3.03
2023-05-18T00:49:28.480Z,1.90
2023-05-18T00:51:56.566Z,1.25
2023-05-18T00:54:24.857Z,1.60
2023-05-18T00:56:52.495Z,2.13
2023-05-18T00:59:20.088Z,2.03
2023-05-18T01:01:47.839Z,2.78
2023-05-18T01:04:15.374Z,3.47
2023-05-18T01:06:43.665Z,3.20
2023-05-18T01:09:12.665Z,2.00
2023-05-18T01:11:52.452Z,1.60
2023-05-18T01:14:30.623Z,3.13
2023-05-18T01:17:13.742Z,2.50
2023-05-18T01:19:54.241Z,2.30
2023-05-18T01:22:40.308Z,1.92
2023-05-18T01:25:22.262Z,2.80
2023-05-18T01:27:51.059Z,2.17
2023-05-18T01:30:18.868Z,2.25
2023-05-18T01:32:47.643Z,2.17
2023-05-18T01:35:15.271Z,2.03
2023-05-18T01:37:42.766Z,1.67
2023-05-18T01:40:10.359Z,1.73
2023-05-18T01:42:44.256Z,2.05
2023-05-18T01:45:17.232Z,1.85
2023-05-18T01:47:47.400Z,1.92
2023-05-18T01:50:16.954Z,1.63
2023-05-18T01:52:54.080Z,1.60
2023-05-18T01:55:22.680Z,2.65
2023-05-18T01:57:51.899Z,1.63
2023-05-18T02:00:19.667Z,2.35
2023-05-18T02:02:47.216Z,2.15
2023-05-18T02:05:14.920Z,2.22
2023-05-18T02:07:44.661Z,2.10
2023-05-18T02:10:12.523Z,1.92
2023-05-18T02:12:40.040Z,2.33
2023-05-18T02:15:10.561Z,3.40
2023-05-18T02:17:40.652Z,1.95
2023-05-18T02:20:08.952Z,1.58
2023-05-18T02:22:37.143Z,2.05
2023-05-18T02:25:06.517Z,2.28
2023-05-18T02:27:37.707Z,2.65
2023-05-18T02:30:06.142Z,2.42
2023-05-18T02:32:33.833Z,2.63
2023-05-18T02:35:03.252Z,2.30
2023-05-18T02:37:30.760Z,2.88
2023-05-18T02:39:58.223Z,2.10
2023-05-18T02:42:25.704Z,2.25
2023-05-18T02:44:56.219Z,2.08
2023-05-18T02:47:23.674Z,2.13
2023-05-18T02:49:52.827Z,1.90
2023-05-18T02:52:20.352Z,2.53
2023-05-18T02:54:47.860Z,2.95
2023-05-18T02:57:15.405Z,2.40
2023-05-18T02:59:44.347Z,2.05
2023-05-18T03:02:14.942Z,2.08
2023-05-18T03:04:42.976Z,2.22
2023-05-18T03:07:11.213Z,3.42
2023-05-18T03:09:38.963Z,2.33
2023-05-18T03:12:06.722Z,3.10
2023-05-18T03:14:34.296Z,2.60
2023-05-18T03:17:02.106Z,2.55
2023-05-18T03:19:32.572Z,2.83
2023-05-18T03:22:00.532Z,2.53
2023-05-18T03:24:30.912Z,3.63
2023-05-18T03:26:59.140Z,2.47
2023-05-18T03:29:27.321Z,2.67
2023-05-18T03:31:56.121Z,3.10
2023-05-18T03:34:23.769Z,2.17
2023-05-18T03:36:52.354Z,1.90
2023-05-18T03:39:19.849Z,2.70
2023-05-18T03:41:47.569Z,3.08
2023-05-18T03:44:15.126Z,2.67
2023-05-18T03:46:43.343Z,2.65
2023-05-18T03:49:11.042Z,3.30
2023-05-18T03:51:40.377Z,3.00
2023-05-18T03:54:08.615Z,2.65
2023-05-18T03:56:36.680Z,2.65
2023-05-18T03:59:04.960Z,2.72
2023-05-18T04:01:33.402Z,2.15
2023-05-18T04:04:01.586Z,3.47
2023-05-18T04:06:29.308Z,3.33
2023-05-18T04:08:56.825Z,2.17
2023-05-18T04:11:24.319Z,3.03
2023-05-18T04:13:51.869Z,2.65
2023-05-18T04:16:20.215Z,3.15
2023-05-18T04:18:47.822Z,2.35
2023-05-18T04:21:16.782Z,2.58
2023-05-18T04:23:46.225Z,2.88
2023-05-18T04:26:14.853Z,2.05
2023-05-18T04:28:45.394Z,2.00
2023-05-18T04:31:15.102Z,3.55
2023-05-18T04:33:42.768Z,2.78
2023-05-18T04:36:13.272Z,2.10
2023-05-18T04:38:40.956Z,2.40
2023-05-18T04:41:09.733Z,2.10
2023-05-18T04:43:37.900Z,2.40
2023-05-18T04:46:07.839Z,3.17
2023-05-18T04:48:35.514Z,2.67
2023-05-18T04:51:05.421Z,2.30
2023-05-18T04:53:34.256Z,2.65
2023-05-18T04:56:02.608Z,3.40
2023-05-18T04:58:34.923Z,3.40
2023-05-18T05:01:02.459Z,3.43
2023-05-18T05:03:30.316Z,2.75
2023-05-18T05:05:58.026Z,2.70
2023-05-18T05:08:25.613Z,2.38
2023-05-18T05:10:53.456Z,2.78
2023-05-18T05:13:21.319Z,3.95
2023-05-18T05:15:49.299Z,2.78
2023-05-18T05:18:17.746Z,2.50
2023-05-18T05:20:45.317Z,4.22
2023-05-18T05:23:12.886Z,2.63
2023-05-18T05:25:40.409Z,2.58
2023-05-18T05:28:08.162Z,2.28
2023-05-18T05:30:35.817Z,3.78
2023-05-18T05:33:03.349Z,2.53
2023-05-18T05:35:33.397Z,2.00
2023-05-18T05:38:01.425Z,3.72
2023-05-18T05:40:28.959Z,3.72
2023-05-18T05:42:56.507Z,2.65
2023-05-18T05:45:24.894Z,2.88
2023-05-18T05:47:52.579Z,3.10
2023-05-18T05:50:20.188Z,2.20
2023-05-18T05:52:47.905Z,2.05
2023-05-18T05:55:15.509Z,2.78
2023-05-18T05:57:43.557Z,2.33
2023-05-18T06:00:12.326Z,2.28
2023-05-18T06:02:40.422Z,2.42
2023-05-18T06:05:08.403Z,1.85
2023-05-18T06:07:36.505Z,1.95
2023-05-18T06:10:04.534Z,3.00
2023-05-18T06:12:35.180Z,1.90
2023-05-18T06:15:03.271Z,2.05
2023-05-18T06:17:34.531Z,3.83
2023-05-18T06:20:20.493Z,4.25
2023-05-18T06:22:48.224Z,3.78
2023-05-18T06:25:16.378Z,3.33
2023-05-18T06:27:45.085Z,3.00
2023-05-18T06:30:12.897Z,2.85
2023-05-18T06:32:43.031Z,2.33
2023-05-18T06:35:10.852Z,2.65
2023-05-18T06:37:38.440Z,2.92
2023-05-18T06:40:08.042Z,2.83
2023-05-18T06:42:35.600Z,3.15
2023-05-18T06:45:03.907Z,2.22
2023-05-18T06:47:32.329Z,2.75
2023-05-18T06:49:59.896Z,3.63
2023-05-18T06:52:28.298Z,2.20
2023-05-18T06:54:56.010Z,1.85
2023-05-18T06:57:23.468Z,2.65
2023-05-18T06:59:54.227Z,2.72
2023-05-18T07:02:22.050Z,2.72
2023-05-18T07:04:50.090Z,2.25
2023-05-18T07:07:17.647Z,2.67
2023-05-18T07:09:46.289Z,2.55
2023-05-18T07:12:13.786Z,3.15
2023-05-18T07:14:41.359Z,2.60
2023-05-18T07:17:08.938Z,3.22
2023-05-18T07:19:36.742Z,2.00
2023-05-18T07:22:10.783Z,1.90
2023-05-18T07:24:38.989Z,3.20
2023-05-18T07:27:06.550Z,2.67
2023-05-18T07:29:35.596Z,3.42
2023-05-18T07:32:03.198Z,2.58
2023-05-18T07:34:32.740Z,2.63
2023-05-18T07:37:00.377Z,2.67
2023-05-18T07:39:30.093Z,3.13
2023-05-18T07:41:57.887Z,3.03
2023-05-18T07:44:26.050Z,2.55
2023-05-18T07:46:53.692Z,2.65
2023-05-18T07:49:23.821Z,2.67
2023-05-18T07:51:51.774Z,2.88
2023-05-18T07:54:20.024Z,2.78
2023-05-18T07:56:47.762Z,2.30
2023-05-18T07:59:15.351Z,2.67
2023-05-18T08:01:45.491Z,2.83
2023-05-18T08:04:16.409Z,2.90
2023-05-18T08:06:44.073Z,2.67
2023-05-18T08:09:11.581Z,2.78
2023-05-18T08:11:39.371Z,2.10
2023-05-18T08:50:02.276Z,2.20
2023-05-18T08:52:33.826Z,3.22
2023-05-18T08:55:01.931Z,3.45
2023-05-18T08:57:31.282Z,2.67
2023-05-18T08:59:59.099Z,3.03
2023-05-18T09:02:27.671Z,5.22
2023-05-18T09:04:56.863Z,2.20
2023-05-18T09:07:24.909Z,3.38
2023-05-18T09:09:53.119Z,2.72
2023-05-18T09:12:23.592Z,2.85
2023-05-18T09:14:52.274Z,3.03
2023-05-18T09:17:19.877Z,2.80
2023-05-18T09:19:47.400Z,2.88
2023-05-18T09:22:15.962Z,2.47
2023-05-18T09:24:43.621Z,2.90
2023-05-18T09:27:11.413Z,3.60
2023-05-18T09:29:52.093Z,3.92
2023-05-18T09:32:19.656Z,4.57
2023-05-18T09:34:49.016Z,2.45
2023-05-18T09:37:23.270Z,3.47
2023-05-18T09:40:01.000Z,3.33
2023-05-18T09:42:38.943Z,3.85
2023-05-18T09:45:20.164Z,4.47
2023-05-18T09:47:48.121Z,3.00
2023-05-18T09:50:15.742Z,3.72
2023-05-18T09:52:44.137Z,4.18
2023-05-18T09:55:12.415Z,2.78
2023-05-18T09:57:50.141Z,3.15
2023-05-18T10:00:20.192Z,3.25
2023-05-18T10:02:49.883Z,3.55
2023-05-18T10:05:21.839Z,3.45
2023-05-18T10:07:49.553Z,2.92
2023-05-18T10:10:21.381Z,3.50
2023-05-18T10:12:49.202Z,4.15
2023-05-18T10:15:17.506Z,4.30
2023-05-18T10:17:48.061Z,4.22
2023-05-18T10:20:20.682Z,4.35
2023-05-18T10:22:49.871Z,3.50
2023-05-18T10:25:21.848Z,3.53
2023-05-18T10:27:50.412Z,4.35
2023-05-18T10:30:21.316Z,4.50
2023-05-18T10:32:49.348Z,4.18
2023-05-18T10:35:17.055Z,2.97
2023-05-18T10:37:48.515Z,3.97
2023-05-18T10:40:17.366Z,3.83
2023-05-18T10:42:46.572Z,3.65
2023-05-18T10:45:14.745Z,4.88
2023-05-18T10:47:44.253Z,4.72
2023-05-18T10:50:18.786Z,3.08
2023-05-18T10:52:47.920Z,4.30
2023-05-18T10:55:18.571Z,4.20
2023-05-18T10:57:55.260Z,3.50
2023-05-18T11:00:22.983Z,2.85
2023-05-18T11:02:51.685Z,5.57
2023-05-18T11:05:26.803Z,4.03
2023-05-18T11:08:15.912Z,3.40
2023-05-18T11:10:44.416Z,2.75
2023-05-18T11:13:14.599Z,4.93
2023-05-18T11:15:54.518Z,2.72
2023-05-18T11:18:42.677Z,3.95
2023-05-18T11:21:25.371Z,4.70
2023-05-18T11:24:11.626Z,3.53
2023-05-18T11:26:40.549Z,3.53
2023-05-18T11:29:19.007Z,4.00
2023-05-18T11:31:51.368Z,3.17
2023-05-18T11:34:39.708Z,4.78
2023-05-18T11:37:10.614Z,3.85
2023-05-18T11:39:48.149Z,4.40
2023-05-18T11:42:26.117Z,6.93
2023-05-18T11:44:56.469Z,5.13
2023-05-18T11:47:30.508Z,4.43
2023-05-18T11:49:58.119Z,4.38
2023-05-18T11:52:25.919Z,4.03
2023-05-18T11:54:54.322Z,4.75
2023-05-18T11:57:24.778Z,4.15
2023-05-18T11:59:57.288Z,7.05
2023-05-18T12:02:29.399Z,5.15
2023-05-18T12:04:58.505Z,4.82
2023-05-18T12:07:26.137Z,5.57
2023-05-18T12:09:53.779Z,5.45
2023-05-18T12:12:21.669Z,3.70
2023-05-18T12:14:55.636Z,4.95
2023-05-18T12:17:25.005Z,5.22
2023-05-18T12:19:52.771Z,6.25
2023-05-18T12:22:20.605Z,5.18
2023-05-18T12:24:48.159Z,5.88
2023-05-18T12:27:15.855Z,4.85
2023-05-18T12:29:43.563Z,5.55
2023-05-18T12:32:12.712Z,4.47
2023-05-18T12:34:40.706Z,5.05
2023-05-18T12:37:08.623Z,3.45
2023-05-18T12:39:37.381Z,4.15
2023-05-18T12:42:24.988Z,4.63
2023-05-18T12:44:52.520Z,3.00
2023-05-18T12:47:20.082Z,3.65
2023-05-18T12:49:50.141Z,4.28
2023-05-18T12:52:17.756Z,3.42
2023-05-18T12:54:56.042Z,3.08
2023-05-18T12:57:27.715Z,3.20
2023-05-18T12:59:55.474Z,4.07
2023-05-18T13:02:28.533Z,2.88
2023-05-18T13:05:05.935Z,4.07
2023-05-18T13:07:35.053Z,2.67
2023-05-18T13:10:03.237Z,2.22
2023-05-18T13:12:41.773Z,3.97
2023-05-18T13:15:13.514Z,4.00
2023-05-18T13:17:49.469Z,4.55
2023-05-18T13:20:17.755Z,3.33
2023-05-18T13:22:46.293Z,4.15
2023-05-18T13:25:13.903Z,2.70
2023-05-18T13:27:41.613Z,1.67
2023-05-18T13:30:09.419Z,2.20
2023-05-18T13:32:37.135Z,2.05
2023-05-18T13:35:05.995Z,2.53
2023-05-18T13:37:33.461Z,3.20
2023-05-18T13:40:01.119Z,3.30
2023-05-18T13:42:28.676Z,3.47
2023-05-18T13:44:56.214Z,2.38
2023-05-18T13:47:23.753Z,3.22
2023-05-18T13:49:51.308Z,3.40
2023-05-18T13:52:18.818Z,3.13
2023-05-18T13:54:46.398Z,2.90
2023-05-18T13:57:13.959Z,2.30
2023-05-18T13:59:41.517Z,2.47
2023-05-18T14:02:09.211Z,2.40
2023-05-18T14:04:37.221Z,2.33
2023-05-18T14:07:04.751Z,3.25
2023-05-18T14:09:32.361Z,3.70
2023-05-18T14:12:00.784Z,3.35
2023-05-18T14:14:28.570Z,4.18
2023-05-18T14:16:56.406Z,3.80
2023-05-18T14:19:24.133Z,3.30
2023-05-18T14:21:51.934Z,3.20
2023-05-18T14:24:20.510Z,2.92
2023-05-18T14:26:48.157Z,2.80
2023-05-18T14:29:17.744Z,2.60
2023-05-18T14:31:45.975Z,3.63
2023-05-18T14:34:13.608Z,2.45
2023-05-18T14:36:41.179Z,2.88
2023-05-18T14:39:11.245Z,2.22
2023-05-18T14:41:38.793Z,2.13
2023-05-18T14:44:09.264Z,2.90
2023-05-18T14:46:37.247Z,2.92
2023-05-18T14:49:04.937Z,2.53
2023-05-18T14:51:32.550Z,4.05
2023-05-18T14:54:00.856Z,3.65
2023-05-18T14:56:28.682Z,3.38
2023-05-18T14:58:58.935Z,2.42
2023-05-18T15:01:26.585Z,3.63
2023-05-18T15:03:54.401Z,2.80
2023-05-18T15:06:23.707Z,2.53
2023-05-18T15:08:51.377Z,3.45
2023-05-18T15:11:19.069Z,3.67
2023-05-18T15:13:47.256Z,2.80
2023-05-18T15:16:15.512Z,2.53
2023-05-18T15:18:43.024Z,3.60
2023-05-18T15:21:10.674Z,3.00
2023-05-18T15:23:41.063Z,2.55
2023-05-18T15:26:09.310Z,3.40
2023-05-18T15:28:37.038Z,4.30
2023-05-18T15:31:04.548Z,3.13
2023-05-18T15:33:32.053Z,2.60
2023-05-18T15:35:59.724Z,3.53
2023-05-18T15:38:30.042Z,2.58
2023-05-18T15:40:57.609Z,4.07
2023-05-18T15:43:26.851Z,2.88
2023-05-18T15:45:54.463Z,3.13
2023-05-18T15:48:22.035Z,3.20
2023-05-18T15:50:49.700Z,2.65
2023-05-18T15:53:17.275Z,4.30
2023-05-18T15:55:44.802Z,3.08
2023-05-18T15:58:14.076Z,2.72
2023-05-18T16:00:41.665Z,4.18
2023-05-18T16:03:09.274Z,2.65
2023-05-18T16:05:36.823Z,4.15
2023-05-18T16:08:04.341Z,2.50
2023-05-18T16:10:32.245Z,3.40
2023-05-18T16:13:06.275Z,3.15
2023-05-18T16:15:34.755Z,2.65
2023-05-18T16:18:02.597Z,2.13
2023-05-18T16:20:30.736Z,4.55
2023-05-18T16:22:58.727Z,3.75
2023-05-18T16:25:26.981Z,3.85
2023-05-18T16:27:54.536Z,4.15
2023-05-18T16:30:22.146Z,3.25
2023-05-18T16:32:50.436Z,4.50
2023-05-18T16:35:18.119Z,3.65
2023-05-18T16:37:45.639Z,4.95
2023-05-18T16:40:13.185Z,4.78
2023-05-18T16:42:41.065Z,4.88
2023-05-18T16:45:08.729Z,3.80
2023-05-18T16:47:36.451Z,3.80
2023-05-18T16:50:04.220Z,3.03
2023-05-18T16:52:31.814Z,4.82
2023-05-18T16:54:59.308Z,3.88
2023-05-18T16:57:27.644Z,3.60
2023-05-18T16:59:55.347Z,4.15
2023-05-18T17:02:24.835Z,3.35
2023-05-18T17:04:53.143Z,4.75
2023-05-18T17:07:20.797Z,4.25
2023-05-18T17:09:48.499Z,5.40
2023-05-18T17:12:16.334Z,5.65
2023-05-18T17:14:46.766Z,7.70
2023-05-18T17:17:14.907Z,4.53
2023-05-18T17:19:42.517Z,3.92
2023-05-18T17:22:12.922Z,7.97
2023-05-18T17:24:40.539Z,5.80
2023-05-18T17:27:09.009Z,4.43
2023-05-18T17:29:36.927Z,5.35
2023-05-18T17:32:05.017Z,3.85
2023-05-18T17:34:32.628Z,4.50
2023-05-18T17:37:00.569Z,3.03
2023-05-18T17:39:28.078Z,4.43
2023-05-18T17:41:56.025Z,3.35
2023-05-18T17:44:23.487Z,4.13
2023-05-18T17:46:51.655Z,4.55
2023-05-18T17:49:19.535Z,3.75
2023-05-18T17:51:47.274Z,3.65
2023-05-18T17:54:15.629Z,3.38
2023-05-18T17:56:43.257Z,3.38
2023-05-18T17:59:11.005Z,4.40
2023-05-18T18:01:38.725Z,3.47
2023-05-18T18:04:06.344Z,4.63
2023-05-18T18:06:36.889Z,4.13
2023-05-18T18:09:05.546Z,4.28
2023-05-18T18:11:36.399Z,2.92
2023-05-18T18:14:03.939Z,4.60
2023-05-18T18:16:31.693Z,4.22
2023-05-18T18:19:00.133Z,3.25
2023-05-18T18:21:27.732Z,3.80
2023-05-18T18:23:55.371Z,4.07
2023-05-18T18:26:22.893Z,3.45
2023-05-18T18:28:50.574Z,4.18
2023-05-18T18:31:18.345Z,4.15
2023-05-18T18:33:50.698Z,3.55
2023-05-18T18:36:19.024Z,3.45
2023-05-18T18:38:46.845Z,3.92
2023-05-18T18:41:17.740Z,3.55
2023-05-18T18:43:45.296Z,3.78
2023-05-18T18:46:13.012Z,3.58
2023-05-18T18:48:40.547Z,4.38
2023-05-18T18:51:08.038Z,3.42
2023-05-18T18:53:35.601Z,3.00
2023-05-18T18:56:03.406Z,3.10
2023-05-18T18:58:30.924Z,3.28
2023-05-18T19:00:58.469Z,3.80
2023-05-18T19:03:26.902Z,3.35
2023-05-18T19:05:54.546Z,2.65
2023-05-18T19:08:22.102Z,3.40
2023-05-18T19:10:49.643Z,3.67
2023-05-18T19:13:17.910Z,5.53
2023-05-18T19:15:45.922Z,3.05
2023-05-18T19:18:13.411Z,5.85
2023-05-18T19:20:41.076Z,15.43
2023-05-18T19:23:08.678Z,7.75
2023-05-18T19:25:36.465Z,6.10
2023-05-18T19:28:04.973Z,3.05
2023-05-18T19:30:32.491Z,3.25
2023-05-18T19:33:00.120Z,3.10
2023-05-18T19:35:27.735Z,3.33
2023-05-18T19:37:56.869Z,2.53
2023-05-18T19:40:27.813Z,4.28
2023-05-18T19:42:56.200Z,3.45
2023-05-18T19:45:23.785Z,3.97
2023-05-18T19:47:51.382Z,4.18
2023-05-18T19:50:18.964Z,4.00
2023-05-18T19:52:47.421Z,3.83
2023-05-18T19:55:15.163Z,3.53
2023-05-18T19:57:42.679Z,3.33
2023-05-18T20:00:11.738Z,3.10
2023-05-18T20:02:39.463Z,3.17
2023-05-18T20:05:07.841Z,4.15
2023-05-18T20:07:35.334Z,4.25
2023-05-18T20:10:02.936Z,3.30
2023-05-18T20:12:30.554Z,4.68
2023-05-18T20:14:58.103Z,3.35
2023-05-18T20:17:26.635Z,3.63
2023-05-18T20:19:56.451Z,3.20
2023-05-18T20:22:24.319Z,3.42
2023-05-18T20:24:51.909Z,2.97
2023-05-18T20:27:19.374Z,3.10
2023-05-18T20:29:47.753Z,3.25
2023-05-18T20:32:15.379Z,2.65
2023-05-18T20:34:45.071Z,4.00
2023-05-18T20:37:14.464Z,3.45
2023-05-18T20:39:44.030Z,4.80
2023-05-18T20:42:15.873Z,2.28
2023-05-18T20:44:43.334Z,3.17
2023-05-18T20:47:11.887Z,2.75
2023-05-18T20:49:39.503Z,3.00
2023-05-18T20:52:07.213Z,3.17
2023-05-18T20:54:34.897Z,3.35
2023-05-18T20:57:02.492Z,2.40
2023-05-18T20:59:30.008Z,2.65
2023-05-18T21:01:57.559Z,3.72
2023-05-18T21:04:25.446Z,3.15
2023-05-18T21:06:53.281Z,3.47
2023-05-18T21:09:20.986Z,2.80
2023-05-18T21:11:49.867Z,3.08
2023-05-18T21:14:17.892Z,3.15
2023-05-18T21:16:45.778Z,2.65
2023-05-18T21:19:13.410Z,1.95
2023-05-18T21:21:40.858Z,2.92
2023-05-18T21:24:08.400Z,2.60
2023-05-18T21:26:36.189Z,2.40
2023-05-18T21:29:03.882Z,2.50
2023-05-18T21:31:31.411Z,1.92
2023-05-18T21:33:59.709Z,2.38
2023-05-18T21:36:39.432Z,2.25
2023-05-18T21:39:10.579Z,2.28
2023-05-18T21:41:40.952Z,1.98
2023-05-18T21:44:08.654Z,2.33
2023-05-18T21:46:39.500Z,2.33
2023-05-18T21:49:07.805Z,2.80
2023-05-18T21:51:35.688Z,1.98
2023-05-18T21:54:03.357Z,2.05
2023-05-18T21:56:35.232Z,1.80
2023-05-18T21:59:02.769Z,2.15
2023-05-18T22:01:30.275Z,2.03
2023-05-18T22:03:57.847Z,1.80
2023-05-18T22:06:25.391Z,2.03
2023-05-18T22:08:52.954Z,1.73
2023-05-18T22:11:20.461Z,2.13
2023-05-18T22:13:47.972Z,3.08
2023-05-18T22:16:15.651Z,1.65
2023-05-18T22:18:45.190Z,2.33
2023-05-18T22:21:12.910Z,1.67
2023-05-18T22:23:40.518Z,1.65
2023-05-18T22:26:08.663Z,1.63
2023-05-18T22:28:36.382Z,1.45
2023-05-18T22:31:04.065Z,2.55
2023-05-18T22:33:31.627Z,1.70
2023-05-18T22:35:59.127Z,2.53
2023-05-18T22:38:28.199Z,1.92
2023-05-18T22:40:55.929Z,2.97
2023-05-18T22:43:23.542Z,1.98
2023-05-18T22:45:51.317Z,1.65
2023-05-18T22:48:18.950Z,1.55
2023-05-18T22:50:46.549Z,1.42
2023-05-18T22:53:14.525Z,2.38
2023-05-18T22:55:42.070Z,1.58
2023-05-18T22:58:10.708Z,2.05
2023-05-18T23:00:38.221Z,1.77
2023-05-18T23:03:05.725Z,1.20
2023-05-18T23:05:33.429Z,2.05
2023-05-18T23:08:03.386Z,1.92
2023-05-18T23:10:31.458Z,2.20
2023-05-18T23:12:59.952Z,1.70
2023-05-18T23:15:27.526Z,2.05
2023-05-18T23:17:55.910Z,1.48
2023-05-18T23:20:23.606Z,1.33
2023-05-18T23:22:51.560Z,1.83
2023-05-18T23:25:19.191Z,1.52
2023-05-18T23:27:46.861Z,1.50
2023-05-18T23:30:14.709Z,1.80
2023-05-18T23:32:42.502Z,0.95
2023-05-18T23:35:11.353Z,2.42
2023-05-18T23:37:42.088Z,1.73
2023-05-18T23:40:13.291Z,2.08
2023-05-18T23:42:40.869Z,2.03
2023-05-18T23:45:08.719Z,1.77
2023-05-18T23:47:39.141Z,2.30
2023-05-18T23:50:07.001Z,2.17
2023-05-18T23:52:35.446Z,2.33
2023-05-18T23:55:08.702Z,1.25
2023-05-18T23:57:36.634Z,1.75
